ADDS METAR Data INFO
IDs: Format: Raw Decoded Include TAF

Data at: 1133 UTC 29 May 2017

KDGW 291053Z AUTO 34004KT 10SM CLR 06/04 A3024 RMK AO2 SLP214 T00560039 $
KDGW 290953Z AUTO 32007KT 10SM CLR 07/05 A3024 RMK AO2 SLP211 T00670050 $
KDGW 290853Z AUTO 30006KT 10SM CLR 06/04 A3024 RMK AO2 SLP219 T00610044 55002 $
KDGW 290753Z AUTO 32009KT 10SM BKN120 08/06 A3024 RMK AO2 SLP207 T00830056 $
KDGW 290653Z AUTO 32008KT 10SM OVC110 09/06 A3024 RMK AO2 SLP204 T00890061 402110033 $
KDGW 290553Z AUTO 33008KT 10SM BKN110 08/06 A3025 RMK AO2 SLP209 60000 T00830056 10194 20067 58001 $
KDGW 290453Z AUTO 32003KT 10SM CLR 07/05 A3025 RMK AO2 SLP214 T00720050 $
KDGW 290353Z AUTO 34003KT 10SM CLR 09/06 A3026 RMK AO2 WSHFT 0301 SLP217 T00890056 $
KDGW 290321Z AUTO 24012KT 10SM FEW060 FEW075 OVC090 11/06 A3025 RMK AO2 WSHFT 0301 T01060061 $
KDGW 290253Z AUTO 00000KT 10SM FEW075 OVC090 11/07 A3025 RMK AO2 PK WND 32037/0215 RAB13E30 SLP212 P0000 60000 T01110067 51018 $
KDGW 290153Z AUTO 35014G23KT 10SM SCT080 BKN100 13/04 A3023 RMK AO2 PK WND 36034/0108 LTG DSNT SW SLP211 T01330039 $
KDGW 290053Z AUTO 35020G31KT 10SM SCT110 16/04 A3021 RMK AO2 PK WND 34042/0024 SLP203 T01610044 $
KDGW 282353Z AUTO 32017KT 10SM CLR 19/03 A3019 RMK AO2 PK WND 31028/2339 LTG DSNT NE SLP195 T01940028 10211 20150 56018
KDGW 282253Z AUTO 30014G20KT 10SM FEW065 17/06 A3020 RMK AO2 SLP204 T01720056
KDGW 282153Z AUTO 28012KT 10SM BKN100 BKN110 19/03 A3022 RMK AO2 SLP207 T01890033
KDGW 282053Z AUTO 34021G28KT 10SM FEW037 FEW070 OVC095 15/04 A3025 RMK AO2 PK WND 35036/2041 LTG DSNT SW SLP222 T01500039 53008
KDGW 281953Z AUTO 28020G29KT 10SM FEW080 BKN100 BKN120 19/04 A3021 RMK AO2 PK WND 28030/1936 LTG DSNT N AND W SLP205 T01890044
KDGW 281853Z AUTO 33015G20KT 10SM FEW070 SCT090 21/03 A3021 RMK AO2 SLP197 T02110028
KDGW 281753Z AUTO 29013KT 10SM SCT075 BKN095 19/04 A3022 RMK AO2 SLP205 T01940039 10194 20050 58006
KDGW 281653Z AUTO 30011KT 10SM CLR 18/05 A3024 RMK AO2 SLP211 T01830050
KDGW 281553Z AUTO 28010KT 10SM OVC090 16/05 A3025 RMK AO2 SLP218 T01610050
KDGW 281453Z AUTO 31013KT 10SM CLR 15/04 A3024 RMK AO2 SLP214 T01500039 51008
KDGW 281353Z AUTO 31011KT 10SM CLR 11/04 A3024 RMK AO2 SLP213 T01110039
KDGW 281253Z AUTO 32008KT 10SM CLR 08/03 A3023 RMK AO2 SLP211 T00780033
KDGW 281153Z AUTO 32007KT 10SM CLR 05/02 A3022 RMK AO2 SLP211 T00500022 10061 20033 51003
KDGW 281053Z AUTO 35006KT 10SM CLR 04/02 A3021 RMK AO2 SLP207 T00440022
KDGW 280953Z AUTO 36005KT 10SM CLR 04/02 A3021 RMK AO2 SLP211 T00440022
KDGW 280853Z AUTO 32006KT 10SM CLR 06/03 A3021 RMK AO2 SLP207 T00560028 56001
KDGW 280753Z AUTO 31004KT 10SM CLR 04/02 A3020 RMK AO2 SLP212 T00440022
KDGW 280653Z AUTO 34005KT 10SM FEW085 06/03 A3021 RMK AO2 SLP207 T00610033 401830044
KDGW 280553Z AUTO 31004KT 10SM CLR 06/03 A3021 RMK AO2 SLP213 T00560028 10161 20056 51007
KDGW 280453Z AUTO 35005KT 10SM SCT095 07/04 A3021 RMK AO2 SLP214 T00670039
KDGW 280353Z AUTO 32003KT 10SM CLR 07/03 A3020 RMK AO2 SLP212 T00720033
KDGW 280253Z AUTO 32006KT 10SM CLR 09/04 A3019 RMK AO2 SLP206 T00940039 53007
KDGW 280153Z AUTO 29007KT 10SM CLR 13/04 A3018 RMK AO2 SLP196 T01330039
KDGW 280053Z AUTO 29014KT 10SM FEW100 16/02 A3017 RMK AO2 SLP192 T01560022
KDGW 272353Z AUTO 29019G29KT 10SM CLR 16/02 A3016 RMK AO2 PK WND 29029/2345 SLP191 T01560017 10183 20122 53006


Page loaded:  11:33 UTC  |   04:33 AM Pacific  |   05:33 AM Mountain  |   06:33 AM Central  |   07:33 AM Eastern

 

ADVISORIES

FORECASTS

FORECASTS

OBSERVATIONS

USER TOOLS

ABOUT US